Flight Track Log - Related Links

Times and Time Zones

All times are in EDT time to prevent confusion due to time zone crossing. See the SWA2353 flight status page for this flight to view local times or setup timezone preferences in your user account.

Time Position Orientation Groundspeed Altitude Reporting Facility
EDT Latitude Longitude Course Direction KTS MPH feet Rate Location/Type
Thu 11:25:12 PM 38.7911 -90.3908 323° Northwest 186 214 3,800  Level Kansas City Center
Thu 11:26:14 PM 38.8558 -90.4081 348° North 244 281 6,900 3,659 Climbing Kansas City Center
Thu 11:27:15 PM 38.8811 -90.3089 72° East 303 349 11,300 4,230 Climbing Kansas City Center
Thu 11:28:16 PM 38.8633 -90.1589 99° East 354 407 15,500 4,328 Climbing Kansas City Center
Thu 11:29:17 PM 38.8489 -90.0228 98° East 376 433 20,100 3,689 Climbing Kansas City Center
Thu 11:30:00 PM 38.8232 -89.5089 83° East  Level Estimated
Thu 11:30:18 PM 38.8364 -89.9044 98° East 389 448 23,000  Level Kansas City Center
Thu 11:31:19 PM 38.8208 -89.7589 98° East 403 464 26,000 2,754 Climbing Kansas City Center
Thu 11:32:20 PM 38.7992 -89.5683 98° East 437 503 28,600 2,164 Climbing Kansas City Center
Thu 11:33:21 PM 38.8064 -89.3986 87° East 478 550 30,400 1,820 Climbing Kansas City Center
Thu 11:34:22 PM 38.8294 -89.2219 80° East 499 574 32,300 2,016 Climbing Kansas City Center
Thu 11:35:23 PM 38.8525 -89.0389 81° East 516 594 34,500 2,000 Climbing Kansas City Center
Thu 11:36:25 PM 38.8778 -88.8614 80° East 520 598 36,400 1,756 Climbing Kansas City Center
Thu 11:37:26 PM 38.9011 -88.6767 81° East 525 604 38,100 1,279 Climbing Kansas City Center
Thu 11:38:27 PM 38.9244 -88.4831 81° East 499 574 39,000 1,361 Climbing Kansas City Center
Thu 11:39:25 PM 38.9542 -88.3589 73° East 470 541 40,800 1,008 Climbing Indianapolis Center
Thu 11:40:26 PM 39.0075 -88.1703 70° East 465 535 41,000 98 Climbing Indianapolis Center
Thu 11:41:27 PM 39.0514 -88.0119 70° East 467 537 41,000  Level Indianapolis Center
Thu 11:42:29 PM 39.0958 -87.8522 70° East 469 540 41,000  Level Indianapolis Center
Thu 11:43:30 PM 39.1392 -87.6928 71° East 469 540 41,000  Level Indianapolis Center
Thu 11:44:31 PM 39.1831 -87.5319 71° East 471 542 41,000  Level Indianapolis Center
Thu 11:45:32 PM 39.2267 -87.3742 70° East 470 541 41,000  Level Indianapolis Center
Thu 11:46:33 PM 39.2689 -87.2158 71° East 470 541 41,000  Level Indianapolis Center
Thu 11:47:35 PM 39.3122 -87.0572 71° East 471 542 41,000  Level Indianapolis Center
Thu 11:48:36 PM 39.3533 -86.9006 71° East 465 535 41,000  Level Indianapolis Center
Thu 11:49:37 PM 39.3944 -86.7439 71° East 462 532 41,000  Level Indianapolis Center
Thu 11:50:38 PM 39.4350 -86.5892 71° East 460 529 41,000  Level Indianapolis Center
Thu 11:51:39 PM 39.4836 -86.4019 71° East 462 532 41,000  Level Indianapolis Center
Thu 11:52:40 PM 39.5244 -86.2469 71° East 463 533 41,000  Level Indianapolis Center
Thu 11:53:41 PM 39.5639 -86.0917 72° East 465 535 41,000  Level Indianapolis Center
Thu 11:54:42 PM 39.6028 -85.9361 72° East 470 541 41,000  Level Indianapolis Center
Thu 11:55:44 PM 39.6428 -85.7725 72° East 471 542 41,000  Level Indianapolis Center
Thu 11:56:45 PM 39.6753 -85.6075 76° East 475 547 41,000  Level Indianapolis Center
Thu 11:57:46 PM 39.7075 -85.4417 76° East 476 548 41,000  Level Indianapolis Center
Thu 11:58:47 PM 39.7469 -85.2411 76° East 479 551 41,000  Level Indianapolis Center
Thu 11:59:48 PM 39.7786 -85.0717 76° East 486 559 41,000  Level Indianapolis Center
Fri 12:00:49 AM 39.8122 -84.8928 76° East 489 563 41,000  Level Indianapolis Center
Fri 12:01:50 AM 39.8386 -84.7186 79° East 488 562 41,000  Level Indianapolis Center
Fri 12:02:51 AM 39.8400 -84.5392 89° East 492 566 41,000  Level Indianapolis Center
Fri 12:03:52 AM 39.8444 -84.3614 88° East 489 563 41,000  Level Indianapolis Center
Fri 12:04:53 AM 39.8481 -84.1861 88° East 480 552 41,000  Level Indianapolis Center
Fri 12:05:54 AM 39.8517 -84.0122 88° East 477 549 41,000  Level Indianapolis Center
Fri 12:06:55 AM 39.8544 -83.8461 89° East 479 551 41,000  Level Indianapolis Center
Fri 12:07:56 AM 39.8564 -83.6664 89° East 472 543 41,000  Level Indianapolis Center
Fri 12:08:57 AM 39.8589 -83.5067 89° East 468 539 41,000  Level Indianapolis Center
Fri 12:09:58 AM 39.8622 -83.3392 88° East 464 534 41,000  Level Indianapolis Center
Fri 12:10:59 AM 39.8647 -83.1756 89° East 460 529 41,000  Level Indianapolis Center
Fri 12:12:00 AM 39.8669 -83.0081 89° East 459 528 41,000  Level Indianapolis Center
Fri 12:13:00 AM 39.8686 -82.8408 89° East 459 528 41,000  Level Indianapolis Center
Fri 12:14:01 AM 39.8697 -82.6733 89° East 462 532 41,000  Level Indianapolis Center
Fri 12:15:02 AM 39.8703 -82.5039 90° East 465 535 41,000  Level Indianapolis Center
Fri 12:16:03 AM 39.8661 -82.3036 91° East 466 536 41,000  Level Indianapolis Center
Fri 12:17:04 AM 39.8481 -82.1314 98° East 474 545 41,000  Level Indianapolis Center
Fri 12:18:05 AM 39.8331 -81.9586 96° East 478 550 41,000  Level Indianapolis Center
Fri 12:19:06 AM 39.8178 -81.7856 97° East 478 550 41,000  Level Indianapolis Center
Fri 12:20:07 AM 39.8011 -81.6114 97° East 480 552 41,000  Level Indianapolis Center
Fri 12:20:45 AM 39.7883 -81.5017 99° East 479 551 41,000  Level Cleveland Center
Fri 12:21:45 AM 39.7789 -81.3422 94° East 484 557 41,000  Level Cleveland Center
Fri 12:22:45 AM 39.7614 -81.1717 98° East 484 557 41,000  Level Cleveland Center
Fri 12:23:45 AM 39.7433 -81.0014 98° East 484 557 41,000  Level Cleveland Center
Fri 12:24:45 AM 39.7272 -80.8314 97° East 484 557 41,000  Level Cleveland Center
Fri 12:25:45 AM 39.7086 -80.6614 98° East 484 557 41,000  Level Cleveland Center
Fri 12:26:45 AM 39.6919 -80.4833 97° East 484 557 41,000  Level Cleveland Center
Fri 12:27:45 AM 39.6750 -80.3106 97° East 484 557 41,000  Level Cleveland Center
Fri 12:28:45 AM 39.6578 -80.1381 97° East 484 557 41,000  Level Cleveland Center
Fri 12:30:56 AM 39.6161 -79.7753 98° East 483 556 41,000  Level Washington Center
Fri 12:31:54 AM 39.5969 -79.6044 98° East 483 556 41,000  Level Washington Center
Fri 12:32:53 AM 39.5775 -79.4283 98° East 483 556 41,000 -50 Level Washington Center
Fri 12:33:55 AM 39.5542 -79.2439 99° East 483 556 40,900 -1,131 Descending Washington Center
Fri 12:34:55 AM 39.5383 -79.0792 97° East 483 556 38,700 -2,400 Descending Washington Center
Fri 12:35:55 AM 39.5181 -78.9114 99° East 478 550 36,100 -3,077 Descending Washington Center
Fri 12:36:52 AM 39.4975 -78.7408 99° East 478 550 32,700 -3,570 Descending Washington Center
Fri 12:37:56 AM 39.4747 -78.5706 100° East 478 550 28,900 -3,521 Descending Washington Center
Fri 12:38:53 AM 39.4539 -78.3975 99° East 478 550 25,600 -3,231 Descending Washington Center
Fri 12:39:53 AM 39.4344 -78.2408 99° East 473 544 22,600 -2,902 Descending Washington Center
Fri 12:40:55 AM 39.4150 -78.0844 99° East 453 521 19,700 -2,622 Descending Washington Center
Fri 12:41:52 AM 39.3986 -77.9658 100° East 433 498 17,400 -2,410 Descending Washington Center
Fri 12:42:52 AM 39.3936 -77.7936 92° East 416 479 15,000 -1,200 Descending Washington Center
Fri 12:43:52 AM 39.4042 -77.6706 84° East 389 448 15,000 -148 Level Washington Center
Fri 12:44:54 AM 39.3875 -77.5358 99° East 384 442 14,700 -1,121 Descending Washington Center
Fri 12:45:39 AM 39.3667 -77.4167 103° East 391 450 13,000 -2,051 Descending Potomac TRACON
Fri 12:46:51 AM 39.3167 -77.2667 113° Southeast 360 414 10,700 -1,569 Descending Potomac TRACON
Fri 12:47:49 AM 39.3000 -77.1500 100° East 311 358 9,600 -1,373 Descending Potomac TRACON
Fri 12:48:49 AM 39.2667 -77.0500 113° Southeast 303 349 8,000 -1,526 Descending Potomac TRACON
Fri 12:49:43 AM 39.2333 -76.9667 117° Southeast 296 341 6,700 -1,474 Descending Potomac TRACON
Fri 12:50:43 AM 39.2000 -76.8833 117° Southeast 288 331 5,200 -1,200 Descending Potomac TRACON
Fri 12:51:43 AM 39.1667 -76.8000 117° Southeast 257 296 4,300 -1,100 Descending Potomac TRACON
Fri 12:52:43 AM 39.1333 -76.7167 117° Southeast 209 241 3,000 -1,100 Descending Potomac TRACON
Fri 12:53:43 AM 39.1167 -76.6667 113° Southeast 165 190 2,100 -950 Descending Potomac TRACON
Fri 12:54:43 AM 39.1333 -76.6333 57° Northeast 145 167 1,100 -850 Descending Potomac TRACON
Fri 12:55:43 AM 39.1500 -76.6500 322° Northwest 114 131 400 -700 Descending Potomac TRACON
Fri 12:57:00 AM 39.1667 -76.6667 North  Level FlightAware Approximate
Fri 01:04:00 AM 39.1754 -76.6683 North  Level Estimated
Fri 01:05:00 AM 39.1754 -76.6683 North  Level Estimated
Fri 01:06:00 AM 39.1754 -76.6683 North  Level Estimated
Fri 01:07:00 AM 39.1754 -76.6683 North  Level Estimated
Fri 01:08:00 AM 39.1754 -76.6683 North  Level Estimated
Fri 01:09:00 AM 39.1754 -76.6683 North  Level Estimated

Login

Don't have an account? Register now (free) for customized features, flight alerts, and more!